Time;durP1;ratioP1;P1;durP2;ratioP2;P2;SDS_P1;SDS_P2;PMS_P1;PMS_P2;Temp;Humidity;BMP_temperature;BMP_pressure;BME280_temperature;BME280_humidity;BME280_pressure;Samples;Min_cycle;Max_cycle;Signal;HPM_P1;HPM_P2
2022/09/30 00:01:31;;;;;;;0.60;0.10;;;10.70;1.00;;;;;;5052531;28;20455;-72
2022/09/30 00:04:00;;;;;;;0.60;0.10;;;10.70;1.00;;;;;;5047946;28;20478;-73
2022/09/30 00:06:30;;;;;;;0.60;0.10;;;10.80;1.00;;;;;;5040903;28;20440;-72
2022/09/30 00:08:58;;;;;;;0.60;0.10;;;10.70;1.00;;;;;;5034527;28;20447;-71
2022/09/30 00:11:27;;;;;;;0.60;0.10;;;10.70;1.00;;;;;;5046393;28;20840;-71
2022/09/30 00:13:57;;;;;;;0.50;0.10;;;10.70;1.00;;;;;;5053171;28;21001;-72
2022/09/30 00:16:27;;;;;;;0.60;0.10;;;10.70;1.00;;;;;;5033475;28;20942;-72
2022/09/30 00:18:57;;;;;;;0.60;0.10;;;10.60;1.00;;;;;;5034378;28;20513;-73
2022/09/30 00:21:26;;;;;;;0.57;0.10;;;10.50;1.00;;;;;;5033663;28;20497;-72
2022/09/30 00:23:55;;;;;;;0.60;0.10;;;10.50;1.00;;;;;;5033445;28;20470;-72
2022/09/30 00:26:24;;;;;;;0.60;0.10;;;10.50;1.00;;;;;;5054795;28;20450;-72
2022/09/30 00:28:52;;;;;;;0.60;0.10;;;10.50;1.00;;;;;;5056409;28;20507;-72
2022/09/30 00:31:22;;;;;;;0.60;0.10;;;10.60;1.00;;;;;;5055484;28;20868;-73
2022/09/30 00:36:35;;;;;;;0.60;0.10;;;10.60;1.00;;;;;;5055147;28;20441;-72
2022/09/30 00:39:04;;;;;;;0.50;0.10;;;10.60;1.00;;;;;;5054924;28;20526;-72
2022/09/30 00:41:32;;;;;;;0.60;0.10;;;10.50;1.00;;;;;;5055486;28;20450;-73
2022/09/30 00:44:00;;;;;;;0.60;0.10;;;10.60;1.00;;;;;;5055044;28;20474;-73
2022/09/30 00:46:35;;;;;;;0.60;0.10;;;10.50;1.00;;;;;;5054813;28;20866;-74
2022/09/30 00:49:14;;;;;;;0.60;0.10;;;10.50;1.00;;;;;;5054304;28;20812;-73
2022/09/30 00:51:47;;;;;;;0.53;0.10;;;10.50;1.00;;;;;;5034562;28;21066;-73
2022/09/30 00:54:17;;;;;;;0.60;0.10;;;10.50;1.00;;;;;;5035081;28;20463;-73
2022/09/30 00:56:49;;;;;;;0.60;0.10;;;10.50;1.00;;;;;;5034680;28;20863;-73
2022/09/30 00:59:20;;;;;;;26.93;25.50;;;10.40;1.00;;;;;;5049530;28;20508;-73
2022/09/30 01:01:49;;;;;;;0.50;0.10;;;10.40;1.00;;;;;;5052851;28;20479;-72
2022/09/30 01:04:20;;;;;;;0.57;0.10;;;10.40;1.00;;;;;;5052742;28;20462;-72
2022/09/30 01:06:50;;;;;;;0.50;0.10;;;10.40;1.00;;;;;;5054262;28;20474;-72
2022/09/30 01:09:19;;;;;;;0.60;0.10;;;10.40;1.00;;;;;;5053773;28;20792;-71
2022/09/30 01:11:48;;;;;;;0.60;0.10;;;10.40;1.00;;;;;;5053495;28;20874;-73
2022/09/30 01:14:19;;;;;;;0.60;0.10;;;10.30;1.00;;;;;;5055160;28;20528;-71
2022/09/30 01:16:59;;;;;;;0.60;0.10;;;10.30;1.00;;;;;;5056235;28;20451;-72
2022/09/30 01:19:47;;;;;;;0.60;0.10;;;10.20;1.00;;;;;;5054629;28;20498;-71
2022/09/30 01:22:36;;;;;;;0.60;0.10;;;10.20;1.00;;;;;;5054252;28;20442;-72
2022/09/30 01:25:36;;;;;;;0.50;0.10;;;10.20;1.00;;;;;;5056181;28;20461;-72
2022/09/30 01:28:23;;;;;;;0.60;0.10;;;10.20;1.00;;;;;;5054178;28;20520;-72
2022/09/30 01:31:13;;;;;;;0.70;0.60;;;10.20;1.00;;;;;;5054028;28;20824;-71
2022/09/30 01:33:50;;;;;;;0.50;0.10;;;10.10;1.00;;;;;;5054701;28;20474;-72
2022/09/30 01:36:28;;;;;;;0.60;0.10;;;10.10;1.00;;;;;;5055253;28;20470;-71
2022/09/30 01:39:05;;;;;;;2.40;2.30;;;10.10;1.00;;;;;;5054630;28;20516;-71
2022/09/30 01:41:51;;;;;;;0.50;0.10;;;10.10;1.00;;;;;;5054241;28;20450;-72
2022/09/30 01:44:30;;;;;;;0.50;0.10;;;10.10;1.00;;;;;;5053952;28;20463;-73
2022/09/30 01:47:05;;;;;;;0.60;0.10;;;10.10;1.00;;;;;;5054268;28;20500;-73
2022/09/30 01:49:41;;;;;;;0.60;0.10;;;10.00;1.00;;;;;;5053701;28;20453;-73
2022/09/30 01:52:15;;;;;;;0.60;0.10;;;10.00;1.00;;;;;;5054003;28;20486;-72
2022/09/30 01:54:50;;;;;;;0.50;0.20;;;10.00;1.00;;;;;;5054425;28;20466;-71
2022/09/30 01:57:22;;;;;;;0.57;0.10;;;10.00;1.00;;;;;;5054102;28;20518;-71
2022/09/30 01:59:54;;;;;;;0.50;0.10;;;10.00;1.00;;;;;;5053775;28;20500;-72
2022/09/30 02:02:26;;;;;;;0.60;0.10;;;;;;;;;;5053897;28;20446;-71
2022/09/30 02:04:58;;;;;;;0.60;0.10;;;10.00;1.00;;;;;;5053199;28;20462;-71
2022/09/30 02:07:33;;;;;;;0.60;0.10;;;10.00;1.00;;;;;;5039395;28;21008;-72
2022/09/30 02:10:05;;;;;;;0.60;0.10;;;9.90;1.00;;;;;;5034049;28;20473;-72
2022/09/30 02:12:38;;;;;;;0.50;0.10;;;9.80;1.00;;;;;;5053955;28;20474;-72
2022/09/30 02:15:10;;;;;;;0.60;0.10;;;9.80;1.00;;;;;;5053965;28;20496;-72
2022/09/30 02:17:46;;;;;;;0.60;0.10;;;9.80;1.00;;;;;;5054425;28;20694;-72
2022/09/30 02:20:17;;;;;;;0.57;0.10;;;9.80;1.00;;;;;;5054522;28;20450;-72
2022/09/30 02:22:49;;;;;;;1.10;0.20;;;9.70;1.00;;;;;;5053753;28;20496;-72
2022/09/30 02:25:20;;;;;;;0.60;0.10;;;9.70;1.00;;;;;;5052822;28;20948;-72
2022/09/30 02:27:52;;;;;;;0.60;0.10;;;9.60;1.00;;;;;;5045146;28;20493;-71
2022/09/30 02:30:20;;;;;;;0.50;0.10;;;9.60;1.00;;;;;;5047485;28;20451;-73
2022/09/30 02:32:53;;;;;;;0.60;0.10;;;9.60;1.00;;;;;;5052003;28;20485;-72
2022/09/30 02:35:26;;;;;;;0.50;0.10;;;9.60;1.00;;;;;;5052860;28;20462;-73
2022/09/30 02:37:57;;;;;;;0.53;0.10;;;9.50;1.00;;;;;;5052308;28;20454;-73
2022/09/30 02:40:30;;;;;;;0.50;0.20;;;9.50;1.00;;;;;;5052175;28;20442;-73
2022/09/30 02:42:58;;;;;;;0.57;0.27;;;9.50;1.00;;;;;;5051842;28;20504;-72
2022/09/30 02:45:28;;;;;;;0.50;0.10;;;9.50;1.00;;;;;;5052172;28;20454;-71
2022/09/30 02:48:06;;;;;;;0.60;0.10;;;;;;;;;;5044147;28;21796;-72
2022/09/30 02:50:39;;;;;;;0.60;0.10;;;9.50;1.00;;;;;;5052199;28;20850;-72
2022/09/30 02:53:20;;;;;;;0.50;0.10;;;9.50;1.00;;;;;;5051817;28;20478;-72
2022/09/30 02:56:13;;;;;;;0.50;0.10;;;9.40;1.00;;;;;;5051797;28;20485;-71
2022/09/30 02:58:42;;;;;;;0.60;0.10;;;9.40;1.00;;;;;;5051806;28;20439;-72
2022/09/30 03:01:12;;;;;;;0.60;0.10;;;9.40;1.00;;;;;;5051610;28;20458;-74
2022/09/30 03:03:44;;;;;;;0.57;0.10;;;9.30;1.00;;;;;;5051535;28;20531;-71
2022/09/30 03:06:12;;;;;;;1.17;0.97;;;9.30;1.00;;;;;;5051785;28;20446;-72
2022/09/30 03:08:40;;;;;;;0.60;0.10;;;9.30;1.00;;;;;;5051711;28;20815;-72
2022/09/30 03:11:14;;;;;;;0.60;0.10;;;9.30;1.00;;;;;;5051283;28;20450;-71
2022/09/30 03:14:00;;;;;;;0.50;0.10;;;;;;;;;;5051382;28;20601;-73
2022/09/30 03:16:47;;;;;;;0.50;0.20;;;9.30;1.00;;;;;;5051651;28;20438;-74
2022/09/30 03:19:34;;;;;;;0.60;0.10;;;9.20;1.00;;;;;;5051660;28;20469;-73
2022/09/30 03:22:18;;;;;;;0.53;0.10;;;9.20;1.00;;;;;;5050692;28;20438;-74
2022/09/30 03:24:59;;;;;;;0.60;0.10;;;9.20;1.00;;;;;;5051775;28;20972;-71
2022/09/30 03:27:32;;;;;;;0.60;0.10;;;9.10;1.00;;;;;;5051786;28;20449;-72
2022/09/30 03:30:04;;;;;;;0.50;0.10;;;9.10;1.00;;;;;;5051998;28;20466;-72
2022/09/30 03:32:45;;;;;;;0.50;0.10;;;9.10;1.00;;;;;;5039874;28;20553;-72
2022/09/30 03:35:21;;;;;;;0.50;0.10;;;9.00;1.00;;;;;;5033570;28;20439;-72
2022/09/30 03:37:57;;;;;;;0.60;0.10;;;9.00;1.00;;;;;;5033499;28;20486;-72
2022/09/30 03:40:34;;;;;;;0.50;0.10;;;9.00;1.00;;;;;;5040504;28;20450;-72
2022/09/30 03:43:08;;;;;;;0.50;0.10;;;9.10;1.00;;;;;;5054896;28;20889;-72
2022/09/30 03:45:39;;;;;;;0.60;0.10;;;9.00;1.00;;;;;;5053678;28;20496;-73
2022/09/30 03:48:10;;;;;;;0.50;0.10;;;9.00;1.00;;;;;;5051603;28;20496;-72
2022/09/30 03:50:41;;;;;;;0.50;0.10;;;9.00;1.00;;;;;;5051388;28;20508;-72
2022/09/30 03:53:11;;;;;;;0.50;0.10;;;9.00;1.00;;;;;;5051228;28;20486;-72
2022/09/30 03:55:49;;;;;;;0.50;0.10;;;9.00;1.00;;;;;;5051473;28;20447;-71
2022/09/30 03:58:20;;;;;;;0.53;0.13;;;9.00;1.00;;;;;;5051339;28;20523;-72
2022/09/30 04:00:50;;;;;;;0.50;0.10;;;9.00;1.00;;;;;;5053423;28;20490;-72
2022/09/30 04:03:22;;;;;;;0.60;0.20;;;9.00;1.00;;;;;;5054979;28;20959;-72
2022/09/30 04:05:51;;;;;;;0.50;0.10;;;9.00;1.00;;;;;;5037447;28;20927;-72
2022/09/30 04:08:19;;;;;;;0.50;0.10;;;9.00;1.00;;;;;;5035590;28;20470;-73
2022/09/30 04:10:46;;;;;;;0.50;0.10;;;9.00;1.00;;;;;;5035892;28;20505;-71
2022/09/30 04:13:14;;;;;;;0.50;0.10;;;9.00;1.00;;;;;;5034940;28;20539;-72
2022/09/30 04:15:42;;;;;;;0.50;0.10;;;9.00;1.00;;;;;;5035655;28;20446;-72
2022/09/30 04:18:09;;;;;;;0.50;0.10;;;9.00;1.00;;;;;;5035544;28;20443;-73
2022/09/30 04:20:39;;;;;;;0.50;0.10;;;8.90;1.00;;;;;;5041029;28;20482;-73
2022/09/30 04:23:08;;;;;;;0.50;0.10;;;8.90;1.00;;;;;;5054501;28;20466;-73
2022/09/30 04:25:36;;;;;;;0.50;0.10;;;8.90;1.00;;;;;;5055758;28;20866;-73
2022/09/30 04:28:03;;;;;;;0.50;0.10;;;8.90;1.00;;;;;;5054973;28;20454;-72
2022/09/30 04:30:31;;;;;;;0.50;0.10;;;8.90;1.00;;;;;;5054481;28;20512;-72
2022/09/30 04:33:00;;;;;;;0.50;0.10;;;8.90;1.00;;;;;;5054003;28;20859;-72
2022/09/30 04:35:28;;;;;;;0.50;0.10;;;8.90;1.00;;;;;;5054626;28;20851;-72
2022/09/30 04:37:56;;;;;;;0.50;0.10;;;8.80;1.00;;;;;;5054441;28;20937;-73
2022/09/30 04:40:25;;;;;;;0.50;0.10;;;8.80;1.00;;;;;;5054441;28;20443;-72
2022/09/30 04:42:57;;;;;;;0.60;0.20;;;8.90;1.00;;;;;;5054207;28;20545;-72
2022/09/30 04:45:24;;;;;;;0.50;0.10;;;8.80;1.00;;;;;;5054653;28;20442;-72
2022/09/30 04:47:52;;;;;;;0.50;0.10;;;8.70;1.00;;;;;;5054614;28;20504;-72
2022/09/30 04:50:20;;;;;;;0.50;0.20;;;8.50;1.00;;;;;;5054161;28;20455;-72
2022/09/30 04:52:48;;;;;;;0.50;0.13;;;8.50;1.00;;;;;;5053900;28;20474;-72
2022/09/30 04:55:16;;;;;;;0.50;0.10;;;;;;;;;;5054700;28;20585;-72
2022/09/30 04:57:45;;;;;;;0.50;0.10;;;8.50;1.00;;;;;;5054521;28;20496;-72
2022/09/30 05:00:13;;;;;;;0.50;0.10;;;8.50;1.00;;;;;;5054080;28;20504;-72
2022/09/30 05:02:43;;;;;;;0.60;0.20;;;;;;;;;;5054225;28;20446;-71
2022/09/30 05:05:11;;;;;;;0.50;0.10;;;8.50;1.00;;;;;;5054375;28;20450;-72
2022/09/30 05:07:39;;;;;;;0.60;0.20;;;;;;;;;;5054079;28;20470;-72
2022/09/30 05:10:09;;;;;;;0.50;0.10;;;8.50;1.00;;;;;;5053299;28;20455;-73
2022/09/30 05:12:39;;;;;;;0.60;0.20;;;8.50;1.00;;;;;;5052688;28;20439;-71
2022/09/30 05:15:09;;;;;;;0.63;0.30;;;8.50;1.00;;;;;;5053590;28;20532;-73
2022/09/30 05:17:37;;;;;;;0.50;0.10;;;8.50;1.00;;;;;;5054276;28;20477;-72
2022/09/30 05:20:09;;;;;;;0.50;0.10;;;;;;;;;;5053892;28;20454;-74
2022/09/30 05:22:37;;;;;;;0.50;0.10;;;8.50;1.00;;;;;;5054095;28;20443;-72
2022/09/30 05:25:06;;;;;;;0.50;0.10;;;8.40;1.00;;;;;;5054482;28;20521;-72
2022/09/30 05:27:33;;;;;;;0.50;0.10;;;8.40;1.00;;;;;;5054463;28;20446;-72
2022/09/30 05:30:01;;;;;;;0.50;0.10;;;8.40;1.00;;;;;;5053410;28;20447;-72
2022/09/30 05:32:31;;;;;;;0.50;0.10;;;8.50;1.00;;;;;;5053549;28;20439;-72
2022/09/30 05:35:01;;;;;;;0.50;0.10;;;8.40;1.00;;;;;;5054046;28;20534;-74
2022/09/30 05:37:29;;;;;;;0.50;0.10;;;8.50;1.00;;;;;;5041376;28;20487;-74
2022/09/30 05:39:58;;;;;;;0.50;0.10;;;8.50;1.00;;;;;;5044326;28;20446;-73
2022/09/30 05:42:25;;;;;;;0.50;0.10;;;8.40;1.00;;;;;;5053313;28;20470;-73
2022/09/30 05:44:53;;;;;;;0.50;0.10;;;8.50;1.00;;;;;;5053608;28;20443;-74
2022/09/30 05:47:22;;;;;;;0.50;0.10;;;8.50;1.00;;;;;;5053299;28;20497;-73
2022/09/30 05:49:52;;;;;;;0.50;0.10;;;8.40;1.00;;;;;;5052958;28;20823;-73
2022/09/30 05:52:22;;;;;;;0.50;0.10;;;8.30;1.00;;;;;;5053138;28;20447;-72
2022/09/30 05:54:50;;;;;;;0.50;0.10;;;8.40;1.00;;;;;;5052720;28;20544;-71
2022/09/30 05:57:18;;;;;;;0.50;0.10;;;8.40;1.00;;;;;;5053790;28;20451;-72
2022/09/30 05:59:46;;;;;;;0.50;0.10;;;8.40;1.00;;;;;;5052821;28;20485;-72
2022/09/30 06:02:14;;;;;;;0.87;0.83;;;8.40;1.00;;;;;;5052514;28;20952;-73
2022/09/30 06:04:42;;;;;;;0.60;0.20;;;8.40;1.00;;;;;;5052885;28;20469;-72
2022/09/30 06:07:12;;;;;;;0.50;0.10;;;8.40;1.00;;;;;;5052563;28;20454;-73
2022/09/30 06:09:40;;;;;;;0.50;0.10;;;8.40;1.00;;;;;;5052554;28;21010;-72
2022/09/30 06:12:08;;;;;;;0.50;0.10;;;8.50;1.00;;;;;;5052900;28;20443;-72
2022/09/30 06:14:36;;;;;;;0.50;0.10;;;8.40;1.00;;;;;;5040435;28;20522;-72
2022/09/30 06:17:05;;;;;;;0.50;0.10;;;8.40;1.00;;;;;;5052440;28;20497;-72
2022/09/30 06:19:33;;;;;;;0.50;0.10;;;8.50;1.00;;;;;;5052681;28;20602;-72
2022/09/30 06:22:00;;;;;;;0.50;0.10;;;8.40;1.00;;;;;;5052235;28;20953;-72
2022/09/30 06:24:30;;;;;;;0.60;0.33;;;8.40;1.00;;;;;;5052387;28;20466;-72
2022/09/30 06:26:58;;;;;;;0.50;0.10;;;8.40;1.00;;;;;;5052387;28;20576;-73
2022/09/30 06:29:25;;;;;;;0.50;0.10;;;8.40;1.00;;;;;;5048838;28;20481;-72
2022/09/30 06:31:53;;;;;;;0.50;0.10;;;8.40;1.00;;;;;;5052602;28;20442;-72
2022/09/30 06:34:21;;;;;;;0.50;0.10;;;8.40;1.00;;;;;;5052314;28;20569;-71
2022/09/30 06:36:49;;;;;;;4.00;3.80;;;8.40;1.00;;;;;;5052241;28;20482;-72
2022/09/30 06:39:17;;;;;;;0.50;0.10;;;8.40;1.00;;;;;;5044075;28;20447;-72
2022/09/30 06:41:47;;;;;;;0.50;0.10;;;8.40;1.00;;;;;;5052227;28;20443;-72
2022/09/30 06:44:14;;;;;;;0.50;0.30;;;8.50;1.00;;;;;;5038804;28;20490;-72
2022/09/30 06:46:42;;;;;;;0.50;0.10;;;8.60;1.00;;;;;;5040825;28;20450;-71
2022/09/30 06:49:20;;;;;;;0.50;0.10;;;8.60;1.00;;;;;;5050531;28;20559;-72
2022/09/30 06:51:50;;;;;;;0.50;0.10;;;8.60;1.00;;;;;;5042431;28;20450;-71
2022/09/30 06:54:19;;;;;;;0.50;0.10;;;8.70;1.00;;;;;;5040402;28;20475;-70
2022/09/30 06:56:51;;;;;;;0.60;0.20;;;8.80;1.00;;;;;;5040478;28;20930;-75
2022/09/30 06:59:19;;;;;;;0.50;0.10;;;8.90;1.00;;;;;;5052725;28;20216;-71
2022/09/30 07:01:47;;;;;;;0.50;0.10;;;8.90;1.00;;;;;;5051818;28;20442;-70
2022/09/30 07:04:15;;;;;;;0.50;0.10;;;8.90;1.00;;;;;;5051785;28;20949;-71
2022/09/30 07:06:43;;;;;;;0.50;0.13;;;8.90;1.00;;;;;;5051576;28;20500;-69
2022/09/30 07:09:11;;;;;;;0.50;0.10;;;8.90;1.00;;;;;;5053141;28;20473;-70
2022/09/30 07:11:39;;;;;;;0.50;0.10;;;8.90;1.00;;;;;;5051718;28;20926;-70
2022/09/30 07:14:09;;;;;;;0.57;0.30;;;8.90;1.00;;;;;;5041382;28;20564;-71
2022/09/30 07:16:37;;;;;;;3.57;0.93;;;8.90;1.00;;;;;;5039041;28;20447;-70
2022/09/30 07:19:07;;;;;;;0.50;0.13;;;9.00;1.00;;;;;;5052222;28;20478;-71
2022/09/30 07:21:35;;;;;;;0.50;0.10;;;9.00;1.00;;;;;;5052661;28;20915;-70
2022/09/30 07:24:04;;;;;;;0.60;0.40;;;9.10;1.00;;;;;;5051267;28;20458;-71
2022/09/30 07:26:32;;;;;;;0.50;0.10;;;9.20;1.00;;;;;;5051334;28;20446;-72
2022/09/30 07:29:00;;;;;;;0.50;0.10;;;9.20;1.00;;;;;;5051513;28;20445;-71
2022/09/30 07:31:29;;;;;;;0.93;0.63;;;9.20;1.00;;;;;;5043432;28;20802;-70
2022/09/30 07:34:01;;;;;;;0.50;0.10;;;9.20;1.00;;;;;;5052314;28;20996;-69
2022/09/30 07:36:30;;;;;;;0.50;0.10;;;9.10;1.00;;;;;;5053936;28;20543;-71
2022/09/30 07:39:04;;;;;;;0.50;0.10;;;9.20;1.00;;;;;;5038768;28;20443;-71
2022/09/30 07:41:35;;;;;;;0.50;0.13;;;9.20;1.00;;;;;;5038963;28;20793;-71
2022/09/30 07:44:05;;;;;;;0.50;0.10;;;9.20;1.00;;;;;;5037712;28;21046;-70
2022/09/30 07:46:37;;;;;;;0.60;0.20;;;9.20;1.00;;;;;;5043937;28;20450;-71
2022/09/30 07:49:08;;;;;;;0.50;0.10;;;9.20;1.00;;;;;;5058214;28;20442;-71
2022/09/30 07:51:38;;;;;;;0.50;0.10;;;9.20;1.00;;;;;;5049936;28;20510;-71
2022/09/30 07:54:08;;;;;;;0.50;0.10;;;9.40;1.00;;;;;;5058122;28;20984;-70
2022/09/30 07:56:38;;;;;;;0.50;0.10;;;9.40;1.00;;;;;;5058273;28;20431;-70
2022/09/30 07:59:27;;;;;;;0.50;0.10;;;9.50;1.00;;;;;;5058462;28;20553;-70
2022/09/30 08:01:56;;;;;;;0.50;0.10;;;9.60;1.00;;;;;;5057862;28;20541;-70
2022/09/30 08:04:25;;;;;;;0.60;0.20;;;9.60;1.00;;;;;;5057869;28;20462;-72
2022/09/30 08:06:55;;;;;;;0.60;0.10;;;9.80;1.00;;;;;;5057132;28;20537;-68
2022/09/30 08:09:25;;;;;;;0.60;0.10;;;9.80;1.00;;;;;;5041146;28;20467;-72
2022/09/30 08:11:54;;;;;;;0.60;0.10;;;9.90;1.00;;;;;;5050178;28;20435;-72
2022/09/30 08:14:25;;;;;;;0.60;0.20;;;10.00;1.00;;;;;;5036720;28;20519;-71
2022/09/30 08:16:54;;;;;;;0.60;0.10;;;10.10;1.00;;;;;;5047563;28;20438;-71
2022/09/30 08:19:25;;;;;;;0.60;0.10;;;10.00;1.00;;;;;;5057880;28;20442;-72
2022/09/30 08:21:54;;;;;;;0.60;0.10;;;10.20;1.00;;;;;;5057803;28;20454;-71
2022/09/30 08:24:23;;;;;;;0.57;0.10;;;10.20;1.00;;;;;;5057484;28;20462;-72
2022/09/30 08:26:51;;;;;;;0.60;0.10;;;10.20;1.00;;;;;;5057631;28;20442;-72
2022/09/30 08:29:20;;;;;;;0.60;0.10;;;10.30;1.00;;;;;;5056584;28;20458;-72
2022/09/30 08:32:07;;;;;;;0.57;0.10;;;10.30;1.00;;;;;;5047479;28;20525;-72
2022/09/30 08:34:37;;;;;;;0.60;0.20;;;10.30;1.00;;;;;;5045356;28;21046;-72
2022/09/30 08:37:05;;;;;;;0.60;0.10;;;10.30;1.00;;;;;;5053447;28;20443;-72
2022/09/30 08:39:36;;;;;;;0.60;0.20;;;10.30;1.00;;;;;;5057744;28;20952;-72
2022/09/30 08:42:18;;;;;;;0.60;0.10;;;10.40;1.00;;;;;;5057989;28;20443;-72
2022/09/30 08:45:13;;;;;;;0.60;0.10;;;10.50;1.00;;;;;;5050093;28;21000;-72
2022/09/30 08:47:51;;;;;;;0.60;0.10;;;10.60;1.00;;;;;;5054217;28;20963;-72
2022/09/30 08:50:30;;;;;;;0.60;0.10;;;10.60;1.00;;;;;;5051105;28;20458;-71
2022/09/30 08:53:03;;;;;;;0.60;0.10;;;10.70;1.00;;;;;;5035125;28;20467;-72
2022/09/30 08:55:38;;;;;;;0.60;0.10;;;10.70;1.00;;;;;;5049412;28;20915;-72
2022/09/30 08:58:14;;;;;;;0.60;0.10;;;10.80;1.00;;;;;;5034978;28;20471;-72
2022/09/30 09:00:43;;;;;;;0.60;0.10;;;10.80;1.00;;;;;;5042303;28;20450;-72
2022/09/30 09:03:13;;;;;;;0.60;0.10;;;10.90;1.00;;;;;;5053971;28;20478;-73
2022/09/30 09:05:56;;;;;;;0.60;0.20;;;11.00;1.00;;;;;;5054216;28;20802;-73
2022/09/30 09:08:33;;;;;;;0.60;0.10;;;11.10;1.00;;;;;;5052804;28;20937;-72
2022/09/30 09:11:06;;;;;;;0.60;0.10;;;11.10;1.00;;;;;;5048586;28;20501;-72
2022/09/30 09:13:45;;;;;;;0.60;0.10;;;11.30;1.00;;;;;;5049122;28;20484;-73
2022/09/30 09:16:21;;;;;;;0.60;0.10;;;11.30;1.00;;;;;;5051452;28;20478;-74
2022/09/30 09:18:58;;;;;;;0.60;0.10;;;11.50;1.00;;;;;;5038847;28;20446;-73
2022/09/30 09:21:50;;;;;;;0.60;0.10;;;11.60;1.00;;;;;;5052245;28;20512;-74
2022/09/30 09:24:21;;;;;;;0.60;0.10;;;11.70;1.00;;;;;;5053036;28;20472;-73
2022/09/30 09:26:51;;;;;;;0.60;0.10;;;11.80;1.00;;;;;;5053600;28;20442;-73
2022/09/30 09:29:27;;;;;;;0.60;0.10;;;11.90;1.00;;;;;;5053200;28;20863;-73
2022/09/30 09:31:57;;;;;;;0.60;0.10;;;12.00;1.00;;;;;;5052845;28;20953;-74
2022/09/30 09:34:26;;;;;;;0.60;0.10;;;12.00;1.00;;;;;;5052279;28;20981;-72
2022/09/30 09:37:10;;;;;;;0.60;0.20;;;12.10;1.00;;;;;;5053320;28;20996;-73
2022/09/30 09:40:00;;;;;;;0.60;0.10;;;12.10;1.00;;;;;;5052991;28;20871;-73
2022/09/30 09:42:46;;;;;;;0.60;0.10;;;12.30;1.00;;;;;;5045687;28;20484;-73
2022/09/30 09:45:23;;;;;;;0.60;0.10;;;12.40;1.00;;;;;;5038516;28;20447;-73
2022/09/30 09:47:51;;;;;;;0.60;0.10;;;12.50;1.00;;;;;;5049288;28;20747;-73
2022/09/30 09:50:21;;;;;;;0.60;0.10;;;;;;;;;;5053322;28;20431;-73
2022/09/30 09:53:03;;;;;;;0.60;0.10;;;12.80;1.00;;;;;;5047031;28;20474;-73
2022/09/30 09:55:31;;;;;;;0.60;0.10;;;12.80;1.00;;;;;;5045907;28;20478;-73
2022/09/30 09:58:06;;;;;;;0.60;0.10;;;13.00;1.00;;;;;;5049908;28;20446;-72
2022/09/30 10:03:22;;;;;;;0.60;0.10;;;13.20;1.00;;;;;;5052877;28;20470;-73
2022/09/30 10:06:01;;;;;;;0.60;0.20;;;13.30;1.00;;;;;;5049482;28;20934;-72
2022/09/30 10:08:32;;;;;;;0.60;0.10;;;13.30;1.00;;;;;;5047828;28;21033;-72
2022/09/30 10:11:03;;;;;;;1.23;1.13;;;13.40;1.00;;;;;;5047323;28;20475;-73
2022/09/30 10:13:32;;;;;;;0.60;0.10;;;13.60;1.00;;;;;;5031852;28;20452;-73
2022/09/30 10:16:01;;;;;;;0.60;0.10;;;13.70;1.00;;;;;;5031924;28;20517;-73
2022/09/30 10:18:33;;;;;;;0.60;0.10;;;13.70;1.00;;;;;;5032284;28;20966;-72
2022/09/30 10:21:05;;;;;;;0.60;0.10;;;13.80;1.00;;;;;;5037574;28;20462;-72
2022/09/30 10:23:38;;;;;;;0.60;0.10;;;13.90;1.00;;;;;;5051633;28;20581;-73
2022/09/30 10:26:17;;;;;;;0.60;0.10;;;13.90;1.00;;;;;;5032639;28;20478;-72
2022/09/30 10:28:48;;;;;;;0.60;0.10;;;14.00;1.00;;;;;;5032698;28;20447;-71
2022/09/30 10:31:23;;;;;;;0.60;0.10;;;14.10;1.00;;;;;;5039381;28;20452;-72
2022/09/30 10:34:03;;;;;;;0.60;0.10;;;14.20;1.00;;;;;;5052435;28;21010;-73
2022/09/30 10:36:33;;;;;;;0.60;0.10;;;14.30;1.00;;;;;;5040940;28;20491;-73
2022/09/30 10:39:05;;;;;;;0.60;0.10;;;14.50;1.00;;;;;;5043799;28;20488;-72
2022/09/30 10:41:36;;;;;;;0.60;0.10;;;14.50;1.00;;;;;;5053030;28;20518;-73
2022/09/30 10:44:07;;;;;;;0.60;0.20;;;14.60;1.00;;;;;;5050688;28;20459;-72
2022/09/30 10:46:38;;;;;;;0.60;0.10;;;14.60;1.00;;;;;;5045892;28;20446;-73
2022/09/30 10:49:10;;;;;;;0.60;0.10;;;14.60;1.00;;;;;;5035838;28;20428;-73
2022/09/30 10:51:39;;;;;;;0.60;0.10;;;14.70;1.00;;;;;;5032893;28;20937;-73
2022/09/30 10:54:46;;;;;;;0.60;0.10;;;14.90;1.00;;;;;;5036168;28;20502;-72
2022/09/30 10:57:19;;;;;;;0.60;0.10;;;14.90;1.00;;;;;;5037107;28;20470;-73
2022/09/30 10:59:47;;;;;;;0.60;0.10;;;14.90;1.00;;;;;;5051926;28;20453;-73
2022/09/30 11:02:23;;;;;;;0.60;0.10;;;15.00;1.00;;;;;;5052246;28;20504;-73
2022/09/30 11:05:06;;;;;;;0.60;0.10;;;15.00;1.00;;;;;;5052159;28;20527;-72
2022/09/30 11:07:42;;;;;;;0.60;0.10;;;15.10;1.00;;;;;;5051917;28;20496;-72
2022/09/30 11:10:27;;;;;;;0.60;0.10;;;15.10;1.00;;;;;;5041591;28;20444;-73
2022/09/30 11:13:00;;;;;;;0.60;0.10;;;15.30;1.00;;;;;;5033210;28;20491;-72
2022/09/30 11:15:33;;;;;;;0.60;0.20;;;15.30;1.00;;;;;;5046916;28;20457;-73
2022/09/30 11:18:07;;;;;;;0.60;0.10;;;15.40;1.00;;;;;;5051476;28;20864;-73
2022/09/30 11:20:41;;;;;;;0.60;0.10;;;15.40;1.00;;;;;;5044646;28;20446;-73
2022/09/30 11:23:20;;;;;;;0.60;0.10;;;15.50;1.00;;;;;;5045621;28;20980;-73
2022/09/30 11:25:56;;;;;;;0.60;0.10;;;15.50;1.00;;;;;;5043594;28;20458;-73
2022/09/30 11:28:48;;;;;;;0.60;0.10;;;15.60;1.00;;;;;;5051593;28;20465;-74
2022/09/30 11:31:27;;;;;;;0.60;0.10;;;15.60;1.00;;;;;;5044191;28;20465;-73
2022/09/30 11:34:15;;;;;;;0.60;0.10;;;15.50;1.00;;;;;;5040387;28;20509;-73
2022/09/30 11:36:53;;;;;;;0.60;0.10;;;15.30;1.00;;;;;;5048846;28;20478;-74
2022/09/30 11:39:43;;;;;;;0.60;0.10;;;15.30;1.00;;;;;;5051510;28;20940;-73
2022/09/30 11:42:19;;;;;;;0.60;0.10;;;15.30;1.00;;;;;;5034878;28;20939;-75
2022/09/30 11:44:51;;;;;;;0.60;0.10;;;15.40;1.00;;;;;;5041839;28;20908;-74
2022/09/30 11:47:32;;;;;;;0.60;0.13;;;15.50;1.00;;;;;;5049889;28;20467;-74
2022/09/30 11:50:17;;;;;;;0.60;0.10;;;15.60;1.00;;;;;;5042699;28;20436;-74
2022/09/30 11:52:55;;;;;;;0.70;0.53;;;15.80;1.00;;;;;;5048393;28;20504;-73
2022/09/30 11:55:43;;;;;;;1.60;1.00;;;15.80;1.00;;;;;;5051380;28;20486;-74
2022/09/30 11:58:15;;;;;;;0.60;0.10;;;15.80;1.00;;;;;;5049439;28;20477;-74
2022/09/30 12:01:17;;;;;;;0.60;0.10;;;15.90;1.00;;;;;;5051692;28;20496;-73
2022/09/30 12:03:56;;;;;;;0.60;0.10;;;16.20;1.00;;;;;;5051499;28;20505;-74
2022/09/30 12:06:31;;;;;;;0.60;0.10;;;16.30;1.00;;;;;;5050542;28;20856;-73
2022/09/30 12:09:03;;;;;;;0.60;0.10;;;;;;;;;;5046291;28;20431;-74
2022/09/30 12:11:38;;;;;;;0.60;0.10;;;16.10;1.00;;;;;;5041926;28;20520;-75
2022/09/30 12:14:15;;;;;;;0.60;0.10;;;16.00;1.00;;;;;;5049208;28;21253;-73
2022/09/30 12:16:46;;;;;;;0.60;0.10;;;16.10;1.00;;;;;;5050218;28;20507;-73
2022/09/30 12:19:19;;;;;;;0.60;0.10;;;16.10;1.00;;;;;;5049756;28;20458;-73
2022/09/30 12:21:57;;;;;;;0.60;0.20;;;16.10;1.00;;;;;;5043191;28;20433;-73
2022/09/30 12:24:31;;;;;;;0.60;0.10;;;16.00;1.00;;;;;;5054930;28;20981;-74
2022/09/30 12:27:00;;;;;;;0.60;0.20;;;15.90;1.00;;;;;;5054627;28;20469;-74
2022/09/30 12:32:40;;;;;;;0.60;0.10;;;15.80;1.00;;;;;;5054407;28;20956;-73
2022/09/30 12:35:29;;;;;;;4.33;1.50;;;15.70;1.00;;;;;;5054155;28;20446;-74
2022/09/30 12:38:11;;;;;;;1.23;1.13;;;15.70;1.00;;;;;;5054520;28;20536;-74
2022/09/30 12:40:51;;;;;;;1.37;0.93;;;15.80;1.00;;;;;;5054180;28;20823;-74
2022/09/30 12:43:54;;;;;;;0.60;0.10;;;16.10;1.00;;;;;;5054059;28;20541;-73
2022/09/30 12:46:45;;;;;;;0.60;0.13;;;16.40;1.00;;;;;;5048908;28;20500;-73
2022/09/30 12:49:18;;;;;;;0.60;0.10;;;16.40;1.00;;;;;;5042854;28;20797;-73
2022/09/30 12:51:53;;;;;;;0.60;0.10;;;16.50;1.00;;;;;;5041877;28;20447;-73
2022/09/30 12:54:25;;;;;;;0.60;0.10;;;16.80;1.00;;;;;;5054604;28;20539;-73
2022/09/30 12:56:58;;;;;;;0.60;0.40;;;16.80;1.00;;;;;;5054415;28;20442;-74
2022/09/30 12:59:29;;;;;;;0.60;0.10;;;17.00;1.00;;;;;;5058378;28;20508;-73
2022/09/30 13:01:59;;;;;;;0.60;0.13;;;17.00;1.00;;;;;;5054671;28;20458;-73
2022/09/30 13:04:33;;;;;;;0.60;0.10;;;17.00;1.00;;;;;;5055323;28;20506;-73
2022/09/30 13:07:22;;;;;;;0.60;0.10;;;17.00;1.00;;;;;;5056210;28;20474;-73
2022/09/30 13:10:14;;;;;;;0.60;0.10;;;17.10;1.00;;;;;;5036515;28;20501;-74
2022/09/30 13:12:44;;;;;;;0.60;0.20;;;17.20;1.00;;;;;;5033039;28;20505;-74
2022/09/30 13:15:38;;;;;;;0.60;0.10;;;17.20;1.00;;;;;;5034501;28;20801;-73
2022/09/30 13:18:43;;;;;;;0.60;0.10;;;17.30;1.00;;;;;;5035193;28;20475;-74
2022/09/30 13:21:21;;;;;;;0.60;0.10;;;;;;;;;;5048347;28;20461;-71
2022/09/30 13:23:49;;;;;;;0.60;0.10;;;17.20;1.00;;;;;;5056144;28;20462;-73
2022/09/30 13:26:44;;;;;;;0.60;0.10;;;17.50;1.00;;;;;;5055673;28;20445;-73
2022/09/30 13:29:49;;;;;;;0.60;0.10;;;17.20;1.00;;;;;;5054792;28;20454;-72
2022/09/30 13:32:36;;;;;;;0.60;0.13;;;17.30;1.00;;;;;;4981691;28;20460;-73
2022/09/30 13:35:30;;;;;;;0.60;0.10;;;17.30;1.00;;;;;;5032605;28;20517;-73
2022/09/30 13:38:18;;;;;;;0.60;0.10;;;17.30;1.00;;;;;;5035566;28;20494;-72
2022/09/30 13:40:49;;;;;;;0.60;0.10;;;17.40;1.00;;;;;;5035337;28;20458;-72
2022/09/30 13:43:34;;;;;;;0.60;0.10;;;17.40;1.00;;;;;;5034501;28;20459;-72
2022/09/30 13:46:11;;;;;;;0.70;0.30;;;17.40;1.00;;;;;;5035358;28;20446;-72
2022/09/30 13:48:45;;;;;;;0.60;0.10;;;17.40;1.00;;;;;;5036002;28;20461;-74